sensor_id;sensor_type;location;lat;lon;timestamp;temperature;humidity
16810;DHT22;51744;50.872;4.730;2023-04-06T00:01:56;4.90;99.90
16810;DHT22;51744;50.872;4.730;2023-04-06T00:04:44;4.90;99.90
16810;DHT22;51744;50.872;4.730;2023-04-06T00:07:33;4.90;99.90
16810;DHT22;51744;50.872;4.730;2023-04-06T00:10:21;4.80;99.90
16810;DHT22;51744;50.872;4.730;2023-04-06T00:13:10;4.80;99.90
16810;DHT22;51744;50.872;4.730;2023-04-06T00:15:57;4.80;99.90
16810;DHT22;51744;50.872;4.730;2023-04-06T00:18:46;4.80;99.90
16810;DHT22;51744;50.872;4.730;2023-04-06T00:21:34;4.80;99.90
16810;DHT22;51744;50.872;4.730;2023-04-06T00:24:23;4.80;99.90
16810;DHT22;51744;50.872;4.730;2023-04-06T00:27:11;4.70;99.90
16810;DHT22;51744;50.872;4.730;2023-04-06T00:29:58;4.70;99.90
16810;DHT22;51744;50.872;4.730;2023-04-06T00:32:46;4.60;99.90
16810;DHT22;51744;50.872;4.730;2023-04-06T00:35:35;4.60;99.90
16810;DHT22;51744;50.872;4.730;2023-04-06T00:38:22;4.60;99.90
16810;DHT22;51744;50.872;4.730;2023-04-06T00:41:10;4.60;99.90
16810;DHT22;51744;50.872;4.730;2023-04-06T00:43:58;4.70;99.90
16810;DHT22;51744;50.872;4.730;2023-04-06T00:46:45;4.70;99.90
16810;DHT22;51744;50.872;4.730;2023-04-06T00:49:33;4.70;99.90
16810;DHT22;51744;50.872;4.730;2023-04-06T00:52:23;4.70;99.90
16810;DHT22;51744;50.872;4.730;2023-04-06T00:55:11;4.70;99.90
16810;DHT22;51744;50.872;4.730;2023-04-06T00:58:01;4.70;99.90
16810;DHT22;51744;50.872;4.730;2023-04-06T01:00:57;4.60;99.90
16810;DHT22;51744;50.872;4.730;2023-04-06T01:03:45;4.70;99.90
16810;DHT22;51744;50.872;4.730;2023-04-06T01:06:36;4.80;99.90
16810;DHT22;51744;50.872;4.730;2023-04-06T01:09:27;4.80;99.90
16810;DHT22;51744;50.872;4.730;2023-04-06T01:12:15;4.70;99.90
16810;DHT22;51744;50.872;4.730;2023-04-06T01:15:03;4.80;99.90
16810;DHT22;51744;50.872;4.730;2023-04-06T01:17:52;4.80;99.90
16810;DHT22;51744;50.872;4.730;2023-04-06T01:20:41;4.80;99.90
16810;DHT22;51744;50.872;4.730;2023-04-06T01:23:30;4.90;99.90
16810;DHT22;51744;50.872;4.730;2023-04-06T01:26:18;4.90;99.90
16810;DHT22;51744;50.872;4.730;2023-04-06T01:29:06;5.00;99.90
16810;DHT22;51744;50.872;4.730;2023-04-06T01:31:54;5.00;99.90
16810;DHT22;51744;50.872;4.730;2023-04-06T01:34:41;5.20;99.90
16810;DHT22;51744;50.872;4.730;2023-04-06T01:37:29;5.20;99.90
16810;DHT22;51744;50.872;4.730;2023-04-06T01:40:23;5.30;99.90
16810;DHT22;51744;50.872;4.730;2023-04-06T01:43:11;5.30;99.90
16810;DHT22;51744;50.872;4.730;2023-04-06T01:46:25;5.40;99.90
16810;DHT22;51744;50.872;4.730;2023-04-06T01:49:13;5.40;99.90
16810;DHT22;51744;50.872;4.730;2023-04-06T01:52:05;5.40;99.90
16810;DHT22;51744;50.872;4.730;2023-04-06T01:54:54;5.30;99.90
16810;DHT22;51744;50.872;4.730;2023-04-06T01:57:59;5.40;99.90
16810;DHT22;51744;50.872;4.730;2023-04-06T02:00:53;5.50;99.90
16810;DHT22;51744;50.872;4.730;2023-04-06T02:03:40;5.40;99.90
16810;DHT22;51744;50.872;4.730;2023-04-06T02:06:29;5.40;99.90
16810;DHT22;51744;50.872;4.730;2023-04-06T02:09:17;5.40;99.90
16810;DHT22;51744;50.872;4.730;2023-04-06T02:12:05;5.40;99.90
16810;DHT22;51744;50.872;4.730;2023-04-06T02:14:54;5.40;99.90
16810;DHT22;51744;50.872;4.730;2023-04-06T02:17:42;5.40;99.90
16810;DHT22;51744;50.872;4.730;2023-04-06T02:20:30;5.50;99.90
16810;DHT22;51744;50.872;4.730;2023-04-06T02:23:17;5.50;99.90
16810;DHT22;51744;50.872;4.730;2023-04-06T02:26:05;5.50;99.90
16810;DHT22;51744;50.872;4.730;2023-04-06T02:28:52;5.50;99.90
16810;DHT22;51744;50.872;4.730;2023-04-06T02:31:41;5.50;99.90
16810;DHT22;51744;50.872;4.730;2023-04-06T02:34:29;5.50;99.90
16810;DHT22;51744;50.872;4.730;2023-04-06T02:37:16;5.50;99.90
16810;DHT22;51744;50.872;4.730;2023-04-06T02:40:04;5.40;99.90
16810;DHT22;51744;50.872;4.730;2023-04-06T02:42:51;5.50;99.90
16810;DHT22;51744;50.872;4.730;2023-04-06T02:45:46;5.50;99.90
16810;DHT22;51744;50.872;4.730;2023-04-06T02:48:35;5.50;99.90
16810;DHT22;51744;50.872;4.730;2023-04-06T02:51:23;5.40;99.90
16810;DHT22;51744;50.872;4.730;2023-04-06T02:54:15;5.40;99.90
16810;DHT22;51744;50.872;4.730;2023-04-06T02:57:02;5.40;99.90
16810;DHT22;51744;50.872;4.730;2023-04-06T03:00:00;5.50;99.90
16810;DHT22;51744;50.872;4.730;2023-04-06T03:02:55;5.50;99.90
16810;DHT22;51744;50.872;4.730;2023-04-06T03:05:46;5.50;99.90
16810;DHT22;51744;50.872;4.730;2023-04-06T03:08:37;5.50;99.90
16810;DHT22;51744;50.872;4.730;2023-04-06T03:11:24;5.50;99.90
16810;DHT22;51744;50.872;4.730;2023-04-06T03:14:12;5.40;99.90
16810;DHT22;51744;50.872;4.730;2023-04-06T03:16:59;5.50;99.90
16810;DHT22;51744;50.872;4.730;2023-04-06T03:19:47;5.50;99.90
16810;DHT22;51744;50.872;4.730;2023-04-06T03:22:36;5.50;99.90
16810;DHT22;51744;50.872;4.730;2023-04-06T03:25:26;5.60;99.90
16810;DHT22;51744;50.872;4.730;2023-04-06T03:28:18;5.60;99.90
16810;DHT22;51744;50.872;4.730;2023-04-06T03:31:14;5.70;99.90
16810;DHT22;51744;50.872;4.730;2023-04-06T03:34:12;5.70;99.90
16810;DHT22;51744;50.872;4.730;2023-04-06T03:36:59;5.70;99.90
16810;DHT22;51744;50.872;4.730;2023-04-06T03:40:00;5.80;99.90
16810;DHT22;51744;50.872;4.730;2023-04-06T03:42:47;5.80;99.90
16810;DHT22;51744;50.872;4.730;2023-04-06T03:45:35;5.80;99.90
16810;DHT22;51744;50.872;4.730;2023-04-06T03:48:23;5.90;99.90
16810;DHT22;51744;50.872;4.730;2023-04-06T03:51:11;5.90;99.90
16810;DHT22;51744;50.872;4.730;2023-04-06T03:53:59;5.90;99.90
16810;DHT22;51744;50.872;4.730;2023-04-06T03:56:49;5.90;99.90
16810;DHT22;51744;50.872;4.730;2023-04-06T03:59:36;5.80;99.90
16810;DHT22;51744;50.872;4.730;2023-04-06T04:02:24;5.80;99.90
16810;DHT22;51744;50.872;4.730;2023-04-06T04:05:11;5.90;99.90
16810;DHT22;51744;50.872;4.730;2023-04-06T04:07:59;5.80;99.90
16810;DHT22;51744;50.872;4.730;2023-04-06T04:10:47;5.80;99.90
16810;DHT22;51744;50.872;4.730;2023-04-06T04:13:35;5.80;99.90
16810;DHT22;51744;50.872;4.730;2023-04-06T04:16:24;5.80;99.90
16810;DHT22;51744;50.872;4.730;2023-04-06T04:19:12;5.80;99.90
16810;DHT22;51744;50.872;4.730;2023-04-06T04:21:59;5.80;99.90
16810;DHT22;51744;50.872;4.730;2023-04-06T04:24:52;5.80;99.90
16810;DHT22;51744;50.872;4.730;2023-04-06T04:27:40;5.90;99.90
16810;DHT22;51744;50.872;4.730;2023-04-06T04:30:28;5.90;99.90
16810;DHT22;51744;50.872;4.730;2023-04-06T04:33:16;5.90;99.90
16810;DHT22;51744;50.872;4.730;2023-04-06T04:36:04;5.90;99.90
16810;DHT22;51744;50.872;4.730;2023-04-06T04:38:57;5.90;99.90
16810;DHT22;51744;50.872;4.730;2023-04-06T04:41:49;5.90;99.90
16810;DHT22;51744;50.872;4.730;2023-04-06T04:44:37;6.00;99.90
16810;DHT22;51744;50.872;4.730;2023-04-06T04:47:26;6.00;99.90
16810;DHT22;51744;50.872;4.730;2023-04-06T04:50:14;6.00;99.90
16810;DHT22;51744;50.872;4.730;2023-04-06T04:53:03;6.00;99.90
16810;DHT22;51744;50.872;4.730;2023-04-06T04:55:52;5.90;99.90
16810;DHT22;51744;50.872;4.730;2023-04-06T04:58:40;6.00;99.90
16810;DHT22;51744;50.872;4.730;2023-04-06T05:01:27;6.00;99.90
16810;DHT22;51744;50.872;4.730;2023-04-06T05:04:30;5.90;99.90
16810;DHT22;51744;50.872;4.730;2023-04-06T05:07:20;6.00;99.90
16810;DHT22;51744;50.872;4.730;2023-04-06T05:10:10;5.90;99.90
16810;DHT22;51744;50.872;4.730;2023-04-06T05:13:07;5.90;99.90
16810;DHT22;51744;50.872;4.730;2023-04-06T05:15:54;6.00;99.90
16810;DHT22;51744;50.872;4.730;2023-04-06T05:18:44;6.00;99.90
16810;DHT22;51744;50.872;4.730;2023-04-06T05:21:34;6.00;99.90
16810;DHT22;51744;50.872;4.730;2023-04-06T05:24:24;6.00;99.90
16810;DHT22;51744;50.872;4.730;2023-04-06T05:27:12;6.00;99.90
16810;DHT22;51744;50.872;4.730;2023-04-06T05:29:59;6.10;99.90
16810;DHT22;51744;50.872;4.730;2023-04-06T05:32:50;6.20;99.90
16810;DHT22;51744;50.872;4.730;2023-04-06T05:35:39;6.30;99.90
16810;DHT22;51744;50.872;4.730;2023-04-06T05:38:32;6.30;99.90
16810;DHT22;51744;50.872;4.730;2023-04-06T05:41:27;6.30;99.90
16810;DHT22;51744;50.872;4.730;2023-04-06T05:44:14;6.40;99.90
16810;DHT22;51744;50.872;4.730;2023-04-06T05:47:05;6.40;99.90
16810;DHT22;51744;50.872;4.730;2023-04-06T05:49:55;6.40;99.90
16810;DHT22;51744;50.872;4.730;2023-04-06T05:52:50;6.50;99.90
16810;DHT22;51744;50.872;4.730;2023-04-06T05:55:42;6.50;99.90
16810;DHT22;51744;50.872;4.730;2023-04-06T05:58:34;6.60;99.90
16810;DHT22;51744;50.872;4.730;2023-04-06T06:01:23;6.60;99.90
16810;DHT22;51744;50.872;4.730;2023-04-06T06:04:10;6.70;99.90
16810;DHT22;51744;50.872;4.730;2023-04-06T06:06:58;6.80;99.90
16810;DHT22;51744;50.872;4.730;2023-04-06T06:09:52;6.90;99.90
16810;DHT22;51744;50.872;4.730;2023-04-06T06:12:49;6.90;99.90
16810;DHT22;51744;50.872;4.730;2023-04-06T06:15:36;6.90;99.90
16810;DHT22;51744;50.872;4.730;2023-04-06T06:18:24;7.00;99.90
16810;DHT22;51744;50.872;4.730;2023-04-06T06:21:13;7.00;99.90
16810;DHT22;51744;50.872;4.730;2023-04-06T06:24:03;7.10;99.90
16810;DHT22;51744;50.872;4.730;2023-04-06T06:26:51;7.20;99.90
16810;DHT22;51744;50.872;4.730;2023-04-06T06:29:43;7.20;99.90
16810;DHT22;51744;50.872;4.730;2023-04-06T06:32:31;7.30;99.90
16810;DHT22;51744;50.872;4.730;2023-04-06T06:35:19;7.30;99.90
16810;DHT22;51744;50.872;4.730;2023-04-06T06:38:07;7.40;99.90
16810;DHT22;51744;50.872;4.730;2023-04-06T06:40:54;7.40;99.90
16810;DHT22;51744;50.872;4.730;2023-04-06T06:43:44;7.50;99.90
16810;DHT22;51744;50.872;4.730;2023-04-06T06:46:34;7.60;99.90
16810;DHT22;51744;50.872;4.730;2023-04-06T06:49:21;7.60;99.90
16810;DHT22;51744;50.872;4.730;2023-04-06T06:52:08;7.70;99.90
16810;DHT22;51744;50.872;4.730;2023-04-06T06:54:55;7.70;99.90
16810;DHT22;51744;50.872;4.730;2023-04-06T06:57:43;7.70;99.90
16810;DHT22;51744;50.872;4.730;2023-04-06T07:00:32;7.70;99.90
16810;DHT22;51744;50.872;4.730;2023-04-06T07:03:22;7.80;99.90
16810;DHT22;51744;50.872;4.730;2023-04-06T07:06:09;7.80;99.90
16810;DHT22;51744;50.872;4.730;2023-04-06T07:08:58;7.80;99.90
16810;DHT22;51744;50.872;4.730;2023-04-06T07:11:45;7.80;99.90
16810;DHT22;51744;50.872;4.730;2023-04-06T07:14:33;7.90;99.90
16810;DHT22;51744;50.872;4.730;2023-04-06T07:17:21;8.00;99.90
16810;DHT22;51744;50.872;4.730;2023-04-06T07:20:10;8.00;99.90
16810;DHT22;51744;50.872;4.730;2023-04-06T07:22:58;8.10;99.90
16810;DHT22;51744;50.872;4.730;2023-04-06T07:25:45;8.10;99.90
16810;DHT22;51744;50.872;4.730;2023-04-06T07:28:33;8.10;99.90
16810;DHT22;51744;50.872;4.730;2023-04-06T07:31:20;8.20;99.90
16810;DHT22;51744;50.872;4.730;2023-04-06T07:34:07;8.10;99.90
16810;DHT22;51744;50.872;4.730;2023-04-06T07:36:58;8.00;99.90
16810;DHT22;51744;50.872;4.730;2023-04-06T07:39:48;8.00;99.90
16810;DHT22;51744;50.872;4.730;2023-04-06T07:42:36;8.10;99.90
16810;DHT22;51744;50.872;4.730;2023-04-06T07:45:25;8.00;99.90
16810;DHT22;51744;50.872;4.730;2023-04-06T07:48:13;8.00;99.90
16810;DHT22;51744;50.872;4.730;2023-04-06T07:51:01;7.80;99.90
16810;DHT22;51744;50.872;4.730;2023-04-06T07:53:53;7.90;99.90
16810;DHT22;51744;50.872;4.730;2023-04-06T07:56:41;7.90;99.90
16810;DHT22;51744;50.872;4.730;2023-04-06T07:59:28;7.80;99.90
16810;DHT22;51744;50.872;4.730;2023-04-06T08:02:15;7.80;99.90
16810;DHT22;51744;50.872;4.730;2023-04-06T08:05:04;7.80;99.90
16810;DHT22;51744;50.872;4.730;2023-04-06T08:07:51;7.80;99.90
16810;DHT22;51744;50.872;4.730;2023-04-06T08:10:40;7.80;99.90
16810;DHT22;51744;50.872;4.730;2023-04-06T08:13:28;7.80;99.90
16810;DHT22;51744;50.872;4.730;2023-04-06T08:16:16;7.90;99.90
16810;DHT22;51744;50.872;4.730;2023-04-06T08:19:04;8.00;99.90
16810;DHT22;51744;50.872;4.730;2023-04-06T08:21:53;7.90;99.90
16810;DHT22;51744;50.872;4.730;2023-04-06T08:24:42;8.00;99.90
16810;DHT22;51744;50.872;4.730;2023-04-06T08:27:31;7.90;99.90
16810;DHT22;51744;50.872;4.730;2023-04-06T08:30:19;7.90;99.90
16810;DHT22;51744;50.872;4.730;2023-04-06T08:33:07;8.00;99.90
16810;DHT22;51744;50.872;4.730;2023-04-06T08:35:54;8.20;99.90
16810;DHT22;51744;50.872;4.730;2023-04-06T08:38:42;8.20;99.90
16810;DHT22;51744;50.872;4.730;2023-04-06T08:41:30;8.30;99.90
16810;DHT22;51744;50.872;4.730;2023-04-06T08:44:20;8.30;99.90
16810;DHT22;51744;50.872;4.730;2023-04-06T08:47:07;8.30;99.90
16810;DHT22;51744;50.872;4.730;2023-04-06T08:49:55;8.30;99.90
16810;DHT22;51744;50.872;4.730;2023-04-06T08:52:46;8.30;99.90
16810;DHT22;51744;50.872;4.730;2023-04-06T08:55:33;8.30;99.90
16810;DHT22;51744;50.872;4.730;2023-04-06T08:58:23;8.40;99.90
16810;DHT22;51744;50.872;4.730;2023-04-06T09:01:26;8.40;99.90
16810;DHT22;51744;50.872;4.730;2023-04-06T09:04:15;8.40;99.90
16810;DHT22;51744;50.872;4.730;2023-04-06T09:07:03;8.40;99.90
16810;DHT22;51744;50.872;4.730;2023-04-06T09:09:51;8.40;99.90
16810;DHT22;51744;50.872;4.730;2023-04-06T09:12:38;8.50;99.90
16810;DHT22;51744;50.872;4.730;2023-04-06T09:15:26;8.50;99.90
16810;DHT22;51744;50.872;4.730;2023-04-06T09:18:28;8.50;99.90
16810;DHT22;51744;50.872;4.730;2023-04-06T09:21:17;8.60;99.90
16810;DHT22;51744;50.872;4.730;2023-04-06T09:24:10;8.60;99.90
16810;DHT22;51744;50.872;4.730;2023-04-06T09:26:57;8.60;99.90
16810;DHT22;51744;50.872;4.730;2023-04-06T09:29:44;8.50;99.90
16810;DHT22;51744;50.872;4.730;2023-04-06T09:32:32;8.60;99.90
16810;DHT22;51744;50.872;4.730;2023-04-06T09:35:32;8.50;99.90
16810;DHT22;51744;50.872;4.730;2023-04-06T09:38:20;8.70;99.90
16810;DHT22;51744;50.872;4.730;2023-04-06T09:41:08;8.80;99.90
16810;DHT22;51744;50.872;4.730;2023-04-06T09:44:03;8.80;99.90
16810;DHT22;51744;50.872;4.730;2023-04-06T09:46:53;8.80;99.90
16810;DHT22;51744;50.872;4.730;2023-04-06T09:49:47;8.80;99.90
16810;DHT22;51744;50.872;4.730;2023-04-06T09:52:42;8.70;99.90
16810;DHT22;51744;50.872;4.730;2023-04-06T09:55:34;8.70;99.90
16810;DHT22;51744;50.872;4.730;2023-04-06T09:58:22;8.80;99.90
16810;DHT22;51744;50.872;4.730;2023-04-06T10:01:15;8.70;99.90
16810;DHT22;51744;50.872;4.730;2023-04-06T10:04:13;8.80;99.90
16810;DHT22;51744;50.872;4.730;2023-04-06T10:07:07;9.00;99.90
16810;DHT22;51744;50.872;4.730;2023-04-06T10:09:59;9.00;99.90
16810;DHT22;51744;50.872;4.730;2023-04-06T10:12:48;9.00;99.90
16810;DHT22;51744;50.872;4.730;2023-04-06T10:15:38;8.80;99.90
16810;DHT22;51744;50.872;4.730;2023-04-06T10:18:26;8.70;99.90
16810;DHT22;51744;50.872;4.730;2023-04-06T10:21:18;8.70;99.90
16810;DHT22;51744;50.872;4.730;2023-04-06T10:24:09;8.70;99.90
16810;DHT22;51744;50.872;4.730;2023-04-06T10:27:01;8.70;99.90
16810;DHT22;51744;50.872;4.730;2023-04-06T10:29:50;8.70;99.90
16810;DHT22;51744;50.872;4.730;2023-04-06T10:32:38;8.70;99.90
16810;DHT22;51744;50.872;4.730;2023-04-06T10:35:36;8.70;99.90
16810;DHT22;51744;50.872;4.730;2023-04-06T10:38:35;8.70;99.90
16810;DHT22;51744;50.872;4.730;2023-04-06T10:41:33;8.80;99.90
16810;DHT22;51744;50.872;4.730;2023-04-06T10:44:23;8.70;99.90
16810;DHT22;51744;50.872;4.730;2023-04-06T10:47:16;8.70;99.90
16810;DHT22;51744;50.872;4.730;2023-04-06T10:50:05;8.60;99.90
16810;DHT22;51744;50.872;4.730;2023-04-06T10:53:00;8.70;99.90
16810;DHT22;51744;50.872;4.730;2023-04-06T10:55:49;8.60;99.90
16810;DHT22;51744;50.872;4.730;2023-04-06T10:58:44;8.70;99.90
16810;DHT22;51744;50.872;4.730;2023-04-06T11:01:34;8.70;99.90
16810;DHT22;51744;50.872;4.730;2023-04-06T11:04:21;8.70;99.90
16810;DHT22;51744;50.872;4.730;2023-04-06T11:07:09;8.60;99.90
16810;DHT22;51744;50.872;4.730;2023-04-06T11:09:56;8.60;99.90
16810;DHT22;51744;50.872;4.730;2023-04-06T11:13:02;8.70;99.90
16810;DHT22;51744;50.872;4.730;2023-04-06T11:15:52;8.80;99.90
16810;DHT22;51744;50.872;4.730;2023-04-06T11:18:51;8.80;99.90
16810;DHT22;51744;50.872;4.730;2023-04-06T11:21:40;8.80;99.90
16810;DHT22;51744;50.872;4.730;2023-04-06T11:24:29;8.80;99.90
16810;DHT22;51744;50.872;4.730;2023-04-06T11:27:18;8.80;99.90
16810;DHT22;51744;50.872;4.730;2023-04-06T11:30:08;8.80;99.90
16810;DHT22;51744;50.872;4.730;2023-04-06T11:33:00;8.90;99.90
16810;DHT22;51744;50.872;4.730;2023-04-06T11:35:49;8.90;99.90
16810;DHT22;51744;50.872;4.730;2023-04-06T11:38:39;8.70;99.90
16810;DHT22;51744;50.872;4.730;2023-04-06T11:41:27;8.70;99.90
16810;DHT22;51744;50.872;4.730;2023-04-06T11:44:28;8.70;99.90
16810;DHT22;51744;50.872;4.730;2023-04-06T11:47:16;8.70;99.90
16810;DHT22;51744;50.872;4.730;2023-04-06T11:50:08;8.60;99.90
16810;DHT22;51744;50.872;4.730;2023-04-06T11:53:01;8.70;99.90
16810;DHT22;51744;50.872;4.730;2023-04-06T11:55:49;8.60;99.90
16810;DHT22;51744;50.872;4.730;2023-04-06T11:58:37;8.80;99.90
16810;DHT22;51744;50.872;4.730;2023-04-06T12:01:26;8.90;99.90
16810;DHT22;51744;50.872;4.730;2023-04-06T12:04:13;8.90;99.90
16810;DHT22;51744;50.872;4.730;2023-04-06T12:07:01;8.90;99.90
16810;DHT22;51744;50.872;4.730;2023-04-06T12:09:50;8.80;99.90
16810;DHT22;51744;50.872;4.730;2023-04-06T12:12:37;8.80;99.90
16810;DHT22;51744;50.872;4.730;2023-04-06T12:15:25;8.90;99.90
16810;DHT22;51744;50.872;4.730;2023-04-06T12:18:13;8.90;99.90
16810;DHT22;51744;50.872;4.730;2023-04-06T12:21:00;8.90;99.90
16810;DHT22;51744;50.872;4.730;2023-04-06T12:23:49;8.90;99.90
16810;DHT22;51744;50.872;4.730;2023-04-06T12:26:37;9.00;99.90
16810;DHT22;51744;50.872;4.730;2023-04-06T12:29:24;9.10;99.90
16810;DHT22;51744;50.872;4.730;2023-04-06T12:32:12;9.00;99.90
16810;DHT22;51744;50.872;4.730;2023-04-06T12:35:00;8.90;99.90
16810;DHT22;51744;50.872;4.730;2023-04-06T12:37:47;9.00;99.90
16810;DHT22;51744;50.872;4.730;2023-04-06T12:40:37;9.10;99.90
16810;DHT22;51744;50.872;4.730;2023-04-06T12:43:27;9.20;99.90
16810;DHT22;51744;50.872;4.730;2023-04-06T12:46:15;9.10;99.90
16810;DHT22;51744;50.872;4.730;2023-04-06T12:49:03;9.20;99.90
16810;DHT22;51744;50.872;4.730;2023-04-06T12:51:50;9.00;99.90
16810;DHT22;51744;50.872;4.730;2023-04-06T12:54:37;9.10;99.90
16810;DHT22;51744;50.872;4.730;2023-04-06T12:57:25;9.10;99.90
16810;DHT22;51744;50.872;4.730;2023-04-06T13:00:15;9.10;99.90
16810;DHT22;51744;50.872;4.730;2023-04-06T13:03:03;9.20;99.90
16810;DHT22;51744;50.872;4.730;2023-04-06T13:05:51;9.20;99.90
16810;DHT22;51744;50.872;4.730;2023-04-06T13:08:38;9.20;99.90
16810;DHT22;51744;50.872;4.730;2023-04-06T13:11:27;9.30;99.90
16810;DHT22;51744;50.872;4.730;2023-04-06T13:14:15;9.20;99.90
16810;DHT22;51744;50.872;4.730;2023-04-06T13:17:04;9.20;99.90
16810;DHT22;51744;50.872;4.730;2023-04-06T13:19:50;9.20;99.90
16810;DHT22;51744;50.872;4.730;2023-04-06T13:22:38;9.20;99.90
16810;DHT22;51744;50.872;4.730;2023-04-06T13:25:26;9.10;99.90
16810;DHT22;51744;50.872;4.730;2023-04-06T13:28:14;9.10;99.90
16810;DHT22;51744;50.872;4.730;2023-04-06T13:31:02;9.20;99.90
16810;DHT22;51744;50.872;4.730;2023-04-06T13:33:51;9.20;99.90
16810;DHT22;51744;50.872;4.730;2023-04-06T13:36:38;9.10;99.90
16810;DHT22;51744;50.872;4.730;2023-04-06T13:39:28;9.00;99.90
16810;DHT22;51744;50.872;4.730;2023-04-06T13:42:16;8.90;99.90
16810;DHT22;51744;50.872;4.730;2023-04-06T13:45:04;8.90;99.90
16810;DHT22;51744;50.872;4.730;2023-04-06T13:47:52;8.80;99.90
16810;DHT22;51744;50.872;4.730;2023-04-06T13:50:41;8.80;99.90
16810;DHT22;51744;50.872;4.730;2023-04-06T13:53:28;8.90;99.90
16810;DHT22;51744;50.872;4.730;2023-04-06T13:56:16;8.90;99.90
16810;DHT22;51744;50.872;4.730;2023-04-06T13:59:04;8.90;99.90
16810;DHT22;51744;50.872;4.730;2023-04-06T14:01:51;8.90;99.90
16810;DHT22;51744;50.872;4.730;2023-04-06T14:04:40;9.00;99.90
16810;DHT22;51744;50.872;4.730;2023-04-06T14:07:29;9.00;99.90
16810;DHT22;51744;50.872;4.730;2023-04-06T14:10:17;9.00;99.90
16810;DHT22;51744;50.872;4.730;2023-04-06T14:13:07;9.10;99.90
16810;DHT22;51744;50.872;4.730;2023-04-06T14:15:55;9.10;99.90
16810;DHT22;51744;50.872;4.730;2023-04-06T14:18:43;9.10;99.90
16810;DHT22;51744;50.872;4.730;2023-04-06T14:21:30;9.10;99.90
16810;DHT22;51744;50.872;4.730;2023-04-06T14:24:18;9.10;99.90
16810;DHT22;51744;50.872;4.730;2023-04-06T14:27:06;9.20;99.90
16810;DHT22;51744;50.872;4.730;2023-04-06T14:29:54;9.20;99.90
16810;DHT22;51744;50.872;4.730;2023-04-06T14:32:42;9.20;99.90
16810;DHT22;51744;50.872;4.730;2023-04-06T14:35:30;9.20;99.90
16810;DHT22;51744;50.872;4.730;2023-04-06T14:38:18;9.20;99.90
16810;DHT22;51744;50.872;4.730;2023-04-06T14:41:08;9.20;99.90
16810;DHT22;51744;50.872;4.730;2023-04-06T14:43:56;9.20;99.90
16810;DHT22;51744;50.872;4.730;2023-04-06T14:46:44;9.10;99.90
16810;DHT22;51744;50.872;4.730;2023-04-06T14:49:32;9.10;99.90
16810;DHT22;51744;50.872;4.730;2023-04-06T14:52:20;9.10;99.90
16810;DHT22;51744;50.872;4.730;2023-04-06T14:55:08;9.10;99.90
16810;DHT22;51744;50.872;4.730;2023-04-06T14:57:56;9.10;99.90
16810;DHT22;51744;50.872;4.730;2023-04-06T15:00:44;9.10;99.90
16810;DHT22;51744;50.872;4.730;2023-04-06T15:03:31;9.20;99.90
16810;DHT22;51744;50.872;4.730;2023-04-06T15:06:19;9.20;99.90
16810;DHT22;51744;50.872;4.730;2023-04-06T15:09:07;9.20;99.90
16810;DHT22;51744;50.872;4.730;2023-04-06T15:11:55;9.30;99.90
16810;DHT22;51744;50.872;4.730;2023-04-06T15:14:44;9.30;99.90
16810;DHT22;51744;50.872;4.730;2023-04-06T15:17:31;9.30;99.90
16810;DHT22;51744;50.872;4.730;2023-04-06T15:20:19;9.50;99.90
16810;DHT22;51744;50.872;4.730;2023-04-06T15:23:06;9.50;99.90
16810;DHT22;51744;50.872;4.730;2023-04-06T15:25:53;9.50;99.90
16810;DHT22;51744;50.872;4.730;2023-04-06T15:28:41;9.50;99.90
16810;DHT22;51744;50.872;4.730;2023-04-06T15:31:31;9.60;99.90
16810;DHT22;51744;50.872;4.730;2023-04-06T15:34:26;9.60;99.90
16810;DHT22;51744;50.872;4.730;2023-04-06T15:37:16;9.60;99.90
16810;DHT22;51744;50.872;4.730;2023-04-06T15:40:05;9.70;99.90
16810;DHT22;51744;50.872;4.730;2023-04-06T15:42:53;9.70;99.90
16810;DHT22;51744;50.872;4.730;2023-04-06T15:45:41;9.70;99.90
16810;DHT22;51744;50.872;4.730;2023-04-06T15:48:30;9.90;99.90
16810;DHT22;51744;50.872;4.730;2023-04-06T15:51:17;10.00;99.90
16810;DHT22;51744;50.872;4.730;2023-04-06T15:54:06;9.90;99.90
16810;DHT22;51744;50.872;4.730;2023-04-06T15:56:53;9.90;99.90
16810;DHT22;51744;50.872;4.730;2023-04-06T15:59:41;9.90;99.90
16810;DHT22;51744;50.872;4.730;2023-04-06T16:02:28;9.90;99.90
16810;DHT22;51744;50.872;4.730;2023-04-06T16:05:18;9.90;99.90
16810;DHT22;51744;50.872;4.730;2023-04-06T16:08:06;9.80;99.90
16810;DHT22;51744;50.872;4.730;2023-04-06T16:10:54;9.80;99.90
16810;DHT22;51744;50.872;4.730;2023-04-06T16:13:41;9.90;99.90
16810;DHT22;51744;50.872;4.730;2023-04-06T16:16:38;9.90;99.90
16810;DHT22;51744;50.872;4.730;2023-04-06T16:19:26;9.90;99.90
16810;DHT22;51744;50.872;4.730;2023-04-06T16:22:14;9.90;99.90
16810;DHT22;51744;50.872;4.730;2023-04-06T16:25:02;9.90;99.90
16810;DHT22;51744;50.872;4.730;2023-04-06T16:27:49;9.90;99.90
16810;DHT22;51744;50.872;4.730;2023-04-06T16:30:37;9.90;99.90
16810;DHT22;51744;50.872;4.730;2023-04-06T16:33:26;9.90;99.90
16810;DHT22;51744;50.872;4.730;2023-04-06T16:36:14;10.00;99.90
16810;DHT22;51744;50.872;4.730;2023-04-06T16:39:03;10.10;99.90
16810;DHT22;51744;50.872;4.730;2023-04-06T16:41:50;10.10;99.90
16810;DHT22;51744;50.872;4.730;2023-04-06T16:44:37;10.10;99.90
16810;DHT22;51744;50.872;4.730;2023-04-06T16:47:24;10.20;99.90
16810;DHT22;51744;50.872;4.730;2023-04-06T16:50:12;10.20;99.90
16810;DHT22;51744;50.872;4.730;2023-04-06T16:53:00;10.10;99.90
16810;DHT22;51744;50.872;4.730;2023-04-06T16:55:50;10.20;99.90
16810;DHT22;51744;50.872;4.730;2023-04-06T16:58:37;10.30;99.90
16810;DHT22;51744;50.872;4.730;2023-04-06T17:01:26;10.30;99.90
16810;DHT22;51744;50.872;4.730;2023-04-06T17:04:13;10.20;99.90
16810;DHT22;51744;50.872;4.730;2023-04-06T17:07:00;10.30;99.90
16810;DHT22;51744;50.872;4.730;2023-04-06T17:09:47;10.30;99.90
16810;DHT22;51744;50.872;4.730;2023-04-06T17:12:36;10.30;99.90
16810;DHT22;51744;50.872;4.730;2023-04-06T17:15:23;10.30;99.90
16810;DHT22;51744;50.872;4.730;2023-04-06T17:18:13;10.30;99.90
16810;DHT22;51744;50.872;4.730;2023-04-06T17:21:03;10.30;99.90
16810;DHT22;51744;50.872;4.730;2023-04-06T17:23:53;10.30;99.90
16810;DHT22;51744;50.872;4.730;2023-04-06T17:26:40;10.30;99.90
16810;DHT22;51744;50.872;4.730;2023-04-06T17:29:29;10.30;99.90
16810;DHT22;51744;50.872;4.730;2023-04-06T17:32:18;10.30;99.90
16810;DHT22;51744;50.872;4.730;2023-04-06T17:35:07;10.20;99.90
16810;DHT22;51744;50.872;4.730;2023-04-06T17:37:55;10.20;99.90
16810;DHT22;51744;50.872;4.730;2023-04-06T17:40:42;10.10;99.90
16810;DHT22;51744;50.872;4.730;2023-04-06T17:43:30;10.10;99.90
16810;DHT22;51744;50.872;4.730;2023-04-06T17:46:20;10.10;99.90
16810;DHT22;51744;50.872;4.730;2023-04-06T17:49:07;10.20;99.90
16810;DHT22;51744;50.872;4.730;2023-04-06T17:51:55;10.20;99.90
16810;DHT22;51744;50.872;4.730;2023-04-06T17:54:42;10.20;99.90
16810;DHT22;51744;50.872;4.730;2023-04-06T17:57:31;10.20;99.90
16810;DHT22;51744;50.872;4.730;2023-04-06T18:00:19;10.20;99.90
16810;DHT22;51744;50.872;4.730;2023-04-06T18:03:13;10.20;99.90
16810;DHT22;51744;50.872;4.730;2023-04-06T18:06:08;10.20;99.90